Time;durP1;ratioP1;P1;durP2;ratioP2;P2;SDS_P1;SDS_P2;PMS_P1;PMS_P2;Temp;Humidity;BMP_temperature;BMP_pressure;BME280_temperature;BME280_humidity;BME280_pressure;Samples;Min_cycle;Max_cycle;Signal;HPM_P1;HPM_P2
2022/12/02 00:01:12;;;;;;;47.38;23.55;;;4.00;99.90;;;;;;5008074;28;20117;-90
2022/12/02 00:03:38;;;;;;;43.42;20.67;;;4.00;99.90;;;;;;5007088;28;20055;-90
2022/12/02 00:06:13;;;;;;;45.30;21.88;;;4.00;99.90;;;;;;5010113;28;20061;-89
2022/12/02 00:08:39;;;;;;;42.22;19.60;;;4.00;99.90;;;;;;5006643;28;20029;-88
2022/12/02 00:11:21;;;;;;;42.03;19.70;;;3.90;99.90;;;;;;5007174;28;20038;-88
2022/12/02 00:13:47;;;;;;;41.13;18.95;;;3.90;99.90;;;;;;5006804;28;20029;-89
2022/12/02 00:16:23;;;;;;;38.72;18.23;;;3.90;99.90;;;;;;5001507;28;20493;-89
2022/12/02 00:18:50;;;;;;;38.10;18.83;;;3.80;99.90;;;;;;4996059;28;20029;-90
2022/12/02 00:21:16;;;;;;;42.88;19.50;;;3.90;99.90;;;;;;4990246;28;20034;-89
2022/12/02 00:23:42;;;;;;;36.95;17.70;;;3.80;99.90;;;;;;5004766;28;20026;-90
2022/12/02 00:26:07;;;;;;;39.22;17.77;;;3.80;99.90;;;;;;5002165;28;20045;-89
2022/12/02 00:28:33;;;;;;;38.78;19.05;;;3.80;99.90;;;;;;4996804;28;20057;-90
2022/12/02 00:30:59;;;;;;;36.42;17.75;;;3.90;99.90;;;;;;5006646;28;20033;-89
2022/12/02 00:33:25;;;;;;;39.47;19.05;;;3.80;99.90;;;;;;4987420;28;20030;-87
2022/12/02 00:35:50;;;;;;;44.88;20.90;;;3.80;99.90;;;;;;5018287;28;20451;-89
2022/12/02 00:38:16;;;;;;;39.72;19.00;;;3.80;99.90;;;;;;5006647;28;20042;-89
2022/12/02 00:40:42;;;;;;;38.75;17.88;;;3.80;99.90;;;;;;5004697;28;20033;-89
2022/12/02 00:48:36;;;;;;;45.30;19.23;;;3.80;99.90;;;;;;5005566;28;20025;-89
2022/12/02 00:51:03;;;;;;;43.03;19.67;;;3.80;99.90;;;;;;4998696;28;20483;-89
2022/12/02 00:53:29;;;;;;;38.47;17.15;;;3.80;99.90;;;;;;4988433;28;20034;-89
2022/12/02 00:55:54;;;;;;;35.08;16.25;;;3.80;99.90;;;;;;5004138;28;20049;-90
2022/12/02 00:58:20;;;;;;;35.58;15.45;;;3.70;99.90;;;;;;4990670;28;20025;-90
2022/12/02 01:00:46;;;;;;;38.80;17.80;;;3.70;99.90;;;;;;5006539;28;20042;-89
2022/12/02 01:03:12;;;;;;;30.13;14.13;;;3.80;99.90;;;;;;4990704;28;20041;-89
2022/12/02 01:05:37;;;;;;;31.60;13.90;;;3.80;99.90;;;;;;4986413;28;20038;-90
2022/12/02 01:08:03;;;;;;;32.50;14.73;;;3.80;99.90;;;;;;4991992;28;20047;-90
2022/12/02 01:10:29;;;;;;;32.83;14.60;;;3.70;99.90;;;;;;5002264;28;20030;-90
2022/12/02 01:12:54;;;;;;;26.92;13.60;;;3.70;99.90;;;;;;5005343;28;20121;-89
2022/12/02 01:15:20;;;;;;;36.40;15.60;;;3.80;99.90;;;;;;5007127;28;20109;-88
2022/12/02 01:17:46;;;;;;;30.83;14.60;;;3.80;99.90;;;;;;5006262;28;20468;-89
2022/12/02 01:20:12;;;;;;;31.55;14.15;;;3.70;99.90;;;;;;5014451;28;20100;-90
2022/12/02 01:22:38;;;;;;;38.97;17.20;;;3.70;99.90;;;;;;5003580;28;20037;-89
2022/12/02 01:25:04;;;;;;;34.33;14.60;;;3.70;99.90;;;;;;5004003;28;20034;-87
2022/12/02 01:27:29;;;;;;;36.30;15.77;;;3.70;99.90;;;;;;4986915;28;20034;-90
2022/12/02 01:29:55;;;;;;;33.47;14.38;;;3.70;99.90;;;;;;5001403;28;20087;-90
2022/12/02 01:32:23;;;;;;;37.67;16.35;;;3.70;99.90;;;;;;5004770;28;20030;-90
2022/12/02 01:34:49;;;;;;;32.88;14.43;;;3.70;99.90;;;;;;4988544;28;20053;-90
2022/12/02 01:37:16;;;;;;;34.20;14.90;;;3.70;99.90;;;;;;4995565;28;20479;-89
2022/12/02 01:39:41;;;;;;;34.05;15.57;;;3.70;99.90;;;;;;5006513;28;20026;-88
2022/12/02 01:42:08;;;;;;;28.80;12.63;;;3.70;99.90;;;;;;4995797;28;20033;-89
2022/12/02 01:44:36;;;;;;;30.63;13.40;;;3.70;99.90;;;;;;4997009;28;20026;-90
2022/12/02 01:47:03;;;;;;;28.52;13.02;;;3.70;99.90;;;;;;4987331;28;20482;-88
2022/12/02 01:49:29;;;;;;;27.67;13.00;;;3.70;99.90;;;;;;4987054;28;20388;-88
2022/12/02 01:51:54;;;;;;;37.17;15.32;;;3.70;99.90;;;;;;4985585;28;20080;-89
2022/12/02 01:54:20;;;;;;;29.77;13.88;;;3.70;99.90;;;;;;5004744;28;20033;-89
2022/12/02 01:56:46;;;;;;;34.20;15.57;;;3.60;99.90;;;;;;5009209;28;20037;-89
2022/12/02 01:59:14;;;;;;;30.80;15.38;;;3.60;99.90;;;;;;4983887;28;20077;-90
2022/12/02 02:01:40;;;;;;;35.60;15.85;;;3.70;99.90;;;;;;5005096;28;20030;-89
2022/12/02 02:04:07;;;;;;;35.45;15.30;;;3.70;99.90;;;;;;4985283;28;20023;-89
2022/12/02 02:06:36;;;;;;;36.38;15.25;;;3.60;99.90;;;;;;5003789;28;20045;-88
2022/12/02 02:09:03;;;;;;;33.53;14.88;;;3.60;99.90;;;;;;4987774;28;20508;-87
2022/12/02 02:11:29;;;;;;;32.65;12.40;;;3.70;99.90;;;;;;4992276;28;20030;-90
2022/12/02 02:13:59;;;;;;;30.95;13.40;;;3.70;99.90;;;;;;5001218;28;20049;-90
2022/12/02 02:16:25;;;;;;;36.03;15.65;;;3.60;99.90;;;;;;4993226;28;20044;-88
2022/12/02 02:18:50;;;;;;;31.27;14.32;;;3.60;99.90;;;;;;5016621;28;20113;-88
2022/12/02 02:21:23;;;;;;;32.63;14.38;;;3.60;99.90;;;;;;5001851;28;20030;-89
2022/12/02 02:23:49;;;;;;;33.92;14.65;;;3.60;99.90;;;;;;4994068;28;20076;-89
2022/12/02 02:26:15;;;;;;;33.83;14.25;;;3.60;99.90;;;;;;5017033;28;20490;-90
2022/12/02 02:28:41;;;;;;;34.20;13.45;;;3.60;99.90;;;;;;5007858;28;20072;-91
2022/12/02 02:31:07;;;;;;;26.33;11.50;;;3.60;99.90;;;;;;4994028;28;20036;-89
2022/12/02 02:33:38;;;;;;;28.67;12.18;;;3.60;99.90;;;;;;5007428;28;20027;-89
2022/12/02 02:36:05;;;;;;;28.33;12.60;;;3.60;99.90;;;;;;4990475;28;20080;-90
2022/12/02 02:38:32;;;;;;;28.40;12.13;;;3.60;99.90;;;;;;5009690;28;20022;-90
2022/12/02 02:40:59;;;;;;;24.80;10.45;;;3.60;99.90;;;;;;5014459;28;20030;-90
2022/12/02 02:43:27;;;;;;;26.42;10.63;;;3.60;99.90;;;;;;5005495;28;20037;-89
2022/12/02 02:45:56;;;;;;;27.00;10.25;;;3.60;99.90;;;;;;4991225;28;20042;-90
2022/12/02 02:48:25;;;;;;;23.60;9.82;;;3.60;99.90;;;;;;4986994;28;20048;-90
2022/12/02 02:50:52;;;;;;;28.27;11.15;;;3.50;99.90;;;;;;4996730;28;20022;-88
2022/12/02 02:53:21;;;;;;;28.52;11.13;;;3.60;99.90;;;;;;4985954;28;20581;-89
2022/12/02 02:55:47;;;;;;;23.27;9.98;;;3.50;99.90;;;;;;5011260;28;20029;-90
2022/12/02 02:58:13;;;;;;;24.55;10.60;;;3.60;99.90;;;;;;4991276;28;20030;-90
2022/12/02 03:01:02;;;;;;;27.42;11.73;;;3.60;99.90;;;;;;5000370;28;20108;-89
2022/12/02 03:03:34;;;;;;;19.63;8.47;;;3.50;99.90;;;;;;5006327;28;20129;-90
2022/12/02 03:06:04;;;;;;;22.83;10.25;;;3.60;99.90;;;;;;5001302;28;20034;-90
2022/12/02 03:08:31;;;;;;;26.10;10.40;;;3.50;99.90;;;;;;5004221;28;20457;-90
2022/12/02 03:10:59;;;;;;;18.15;8.65;;;3.50;99.90;;;;;;4992043;28;20030;-90
2022/12/02 03:13:26;;;;;;;19.63;7.80;;;3.50;99.90;;;;;;4992892;28;20037;-89
2022/12/02 03:15:52;;;;;;;23.50;10.18;;;3.50;99.90;;;;;;5013686;28;20101;-89
2022/12/02 03:18:18;;;;;;;28.58;11.68;;;3.50;99.90;;;;;;5002653;28;20057;-90
2022/12/02 03:20:44;;;;;;;24.05;10.18;;;3.50;99.90;;;;;;4996462;28;20041;-90
2022/12/02 03:23:10;;;;;;;24.00;11.35;;;3.50;99.90;;;;;;4990471;28;20479;-90
2022/12/02 03:25:36;;;;;;;26.60;10.98;;;3.50;99.90;;;;;;5003177;28;20085;-89
2022/12/02 03:28:02;;;;;;;23.13;10.68;;;3.50;99.90;;;;;;5005622;28;20026;-89
2022/12/02 03:30:28;;;;;;;25.55;11.02;;;3.50;99.90;;;;;;5007215;28;20057;-89
2022/12/02 03:32:53;;;;;;;27.20;11.25;;;3.50;99.90;;;;;;4991921;28;20491;-91
2022/12/02 03:35:19;;;;;;;29.27;13.50;;;3.50;99.90;;;;;;5003959;28;20026;-89
2022/12/02 03:37:45;;;;;;;27.52;11.40;;;3.50;99.90;;;;;;5005534;28;20026;-89
2022/12/02 03:40:11;;;;;;;28.35;11.02;;;3.50;99.90;;;;;;5008229;28;20053;-90
2022/12/02 03:42:37;;;;;;;29.05;11.50;;;3.50;99.90;;;;;;5002127;28;20021;-88
2022/12/02 03:45:04;;;;;;;26.60;11.10;;;3.50;99.90;;;;;;5007680;28;20432;-90
2022/12/02 03:47:30;;;;;;;18.23;7.95;;;3.50;99.90;;;;;;4990038;28;20045;-90
2022/12/02 03:49:56;;;;;;;24.20;10.02;;;3.50;99.90;;;;;;4987745;28;20409;-90
2022/12/02 03:52:22;;;;;;;22.17;9.32;;;3.50;99.90;;;;;;5009618;28;20464;-89
2022/12/02 03:54:48;;;;;;;23.98;9.10;;;3.50;99.90;;;;;;4996576;28;20116;-91
2022/12/02 03:57:14;;;;;;;25.55;10.55;;;3.50;99.90;;;;;;5009662;28;20053;-89
2022/12/02 03:59:40;;;;;;;21.77;9.75;;;3.50;99.90;;;;;;5007765;28;20026;-89
2022/12/02 04:02:06;;;;;;;20.50;9.55;;;3.50;99.90;;;;;;4990243;28;20037;-89
2022/12/02 04:04:31;;;;;;;22.02;9.13;;;3.50;99.90;;;;;;4990771;28;20514;-90
2022/12/02 04:06:57;;;;;;;19.15;7.97;;;3.50;99.90;;;;;;5014935;28;20068;-88
2022/12/02 04:09:22;;;;;;;17.48;7.43;;;3.50;99.90;;;;;;4996643;28;20062;-88
2022/12/02 04:11:48;;;;;;;21.83;8.27;;;3.50;99.90;;;;;;5006368;28;20335;-89
2022/12/02 04:14:14;;;;;;;24.73;10.02;;;3.40;99.90;;;;;;5003050;28;20026;-90
2022/12/02 04:16:39;;;;;;;22.23;9.23;;;3.50;99.90;;;;;;5009097;28;20041;-90
2022/12/02 04:19:05;;;;;;;23.65;9.82;;;3.50;99.90;;;;;;5005605;28;20032;-90
2022/12/02 04:21:31;;;;;;;19.85;9.35;;;3.60;99.90;;;;;;4990709;28;20442;-89
2022/12/02 04:23:56;;;;;;;21.77;8.55;;;3.50;99.90;;;;;;5002497;28;20030;-89
2022/12/02 04:26:22;;;;;;;20.23;7.85;;;3.50;99.90;;;;;;5016537;28;20037;-89
2022/12/02 04:28:48;;;;;;;20.42;8.75;;;3.50;99.90;;;;;;4990616;28;20042;-90
2022/12/02 04:31:13;;;;;;;22.80;9.25;;;3.50;99.90;;;;;;5003840;28;20494;-90
2022/12/02 04:33:39;;;;;;;24.48;9.63;;;3.50;99.90;;;;;;5006781;28;20540;-89
2022/12/02 04:36:05;;;;;;;24.60;9.77;;;3.50;99.90;;;;;;4999979;28;20426;-90
2022/12/02 04:38:31;;;;;;;24.17;9.15;;;3.50;99.90;;;;;;5002938;28;20513;-88
2022/12/02 04:40:56;;;;;;;33.60;14.63;;;3.50;99.90;;;;;;5002984;28;20030;-89
2022/12/02 04:43:22;;;;;;;29.98;12.98;;;3.40;99.90;;;;;;4991266;28;20037;-89
2022/12/02 04:45:47;;;;;;;27.77;11.73;;;3.40;99.90;;;;;;4996415;28;20045;-89
2022/12/02 04:48:13;;;;;;;28.67;11.20;;;3.50;99.90;;;;;;5003115;28;20380;-90
2022/12/02 04:50:39;;;;;;;24.65;10.70;;;3.50;99.90;;;;;;5004130;28;20065;-87
2022/12/02 04:53:04;;;;;;;26.60;11.68;;;3.50;99.90;;;;;;5002617;28;20069;-90
2022/12/02 04:55:30;;;;;;;27.02;11.00;;;3.40;99.90;;;;;;5003825;28;20084;-88
2022/12/02 04:57:56;;;;;;;30.17;12.50;;;3.40;99.90;;;;;;4989648;28;20125;-89
2022/12/02 05:00:22;;;;;;;24.42;10.52;;;3.40;99.90;;;;;;5005534;28;20030;-89
2022/12/02 05:02:48;;;;;;;27.25;11.32;;;3.40;99.90;;;;;;5004659;28;20033;-89
2022/12/02 05:05:13;;;;;;;28.25;11.45;;;3.40;99.90;;;;;;5011809;28;20083;-89
2022/12/02 05:07:39;;;;;;;17.90;8.23;;;3.40;99.90;;;;;;4991664;28;20030;-90
2022/12/02 05:10:05;;;;;;;22.58;8.57;;;3.40;99.90;;;;;;4989434;28;20026;-89
2022/12/02 05:12:31;;;;;;;22.73;9.32;;;3.40;99.90;;;;;;5015668;28;20092;-89
2022/12/02 05:14:57;;;;;;;18.02;7.63;;;3.50;99.90;;;;;;4987230;28;20029;-89
2022/12/02 05:17:22;;;;;;;21.55;9.52;;;3.50;99.90;;;;;;4995739;28;20019;-90
2022/12/02 05:19:48;;;;;;;21.70;9.55;;;3.40;99.90;;;;;;5003277;28;20395;-89
2022/12/02 05:22:14;;;;;;;21.92;8.05;;;3.40;99.90;;;;;;5003603;28;20064;-87
2022/12/02 05:24:39;;;;;;;22.35;8.82;;;3.40;99.90;;;;;;5005005;28;20028;-90
2022/12/02 05:27:05;;;;;;;18.33;7.28;;;3.40;99.90;;;;;;5005628;28;20487;-90
2022/12/02 05:29:31;;;;;;;19.05;8.07;;;3.40;99.90;;;;;;4995816;28;20033;-90
2022/12/02 05:31:56;;;;;;;20.23;8.80;;;3.40;99.90;;;;;;5004112;28;20037;-90
2022/12/02 05:34:22;;;;;;;19.63;8.25;;;3.40;99.90;;;;;;4988689;28;20089;-89
2022/12/02 05:36:48;;;;;;;19.67;8.10;;;3.30;99.90;;;;;;4991478;28;20043;-90
2022/12/02 05:39:13;;;;;;;15.90;7.10;;;3.40;99.90;;;;;;4989282;28;20022;-90
2022/12/02 05:41:40;;;;;;;18.35;7.85;;;3.40;99.90;;;;;;5007888;28;20084;-89
2022/12/02 05:44:19;;;;;;;23.77;9.40;;;3.40;99.90;;;;;;4998491;28;20022;-88
2022/12/02 05:46:45;;;;;;;17.47;7.67;;;3.30;99.90;;;;;;4993767;28;20054;-87
2022/12/02 05:49:22;;;;;;;20.30;8.30;;;3.40;99.90;;;;;;4993815;28;20508;-90
2022/12/02 05:51:55;;;;;;;17.40;7.22;;;3.40;99.90;;;;;;5007997;28;20100;-90
2022/12/02 05:54:21;;;;;;;19.70;8.10;;;3.30;99.90;;;;;;5004892;28;20512;-90
2022/12/02 05:56:48;;;;;;;21.45;8.52;;;3.30;99.90;;;;;;5005966;28;20025;-90
2022/12/02 05:59:16;;;;;;;22.00;8.77;;;3.30;99.90;;;;;;5007613;28;20033;-91
2022/12/02 06:01:44;;;;;;;21.10;8.40;;;3.30;99.90;;;;;;4990852;28;20048;-90
2022/12/02 06:04:24;;;;;;;27.27;11.15;;;3.20;99.90;;;;;;5009036;28;20018;-91
2022/12/02 06:06:54;;;;;;;24.02;10.55;;;3.20;99.90;;;;;;5002161;28;20042;-90
2022/12/02 06:09:24;;;;;;;20.52;9.55;;;3.20;99.90;;;;;;5010757;28;20030;-91
2022/12/02 06:11:51;;;;;;;23.45;9.65;;;3.30;99.90;;;;;;5017599;28;20084;-90
2022/12/02 06:14:20;;;;;;;20.67;9.80;;;3.20;99.90;;;;;;4988180;28;20057;-89
2022/12/02 06:16:53;;;;;;;25.60;10.88;;;3.20;99.90;;;;;;4987993;28;20030;-90
2022/12/02 06:19:28;;;;;;;20.05;9.30;;;3.20;99.90;;;;;;5003838;28;20034;-90
2022/12/02 06:21:58;;;;;;;23.92;9.43;;;3.20;99.90;;;;;;4995927;28;20121;-89
2022/12/02 06:24:33;;;;;;;22.90;11.38;;;3.20;99.90;;;;;;5005264;28;20072;-89
2022/12/02 06:27:01;;;;;;;24.95;10.90;;;3.20;99.90;;;;;;5000841;28;20133;-90
2022/12/02 06:29:29;;;;;;;26.48;12.43;;;3.20;99.90;;;;;;5004844;28;20053;-90
2022/12/02 06:31:55;;;;;;;23.40;10.75;;;3.20;99.90;;;;;;5004509;28;20080;-89
2022/12/02 06:34:36;;;;;;;27.98;11.90;;;3.20;99.90;;;;;;4999262;28;20033;-90
2022/12/02 06:37:18;;;;;;;25.63;11.13;;;3.20;99.90;;;;;;5005137;28;20034;-90
2022/12/02 06:39:46;;;;;;;26.10;10.98;;;3.20;99.90;;;;;;5005562;28;20025;-90
2022/12/02 06:42:22;;;;;;;22.52;10.75;;;3.10;99.90;;;;;;5007609;28;20054;-90
2022/12/02 06:45:05;;;;;;;25.25;11.77;;;3.10;99.90;;;;;;5003527;28;20418;-89
2022/12/02 06:47:34;;;;;;;33.45;14.82;;;3.10;99.90;;;;;;5008599;28;20065;-88
2022/12/02 06:50:06;;;;;;;29.95;13.68;;;3.10;99.90;;;;;;4992057;28;20114;-89
2022/12/02 06:52:38;;;;;;;27.67;12.05;;;3.10;99.90;;;;;;5006429;28;20054;-89
2022/12/02 06:55:27;;;;;;;30.15;11.70;;;3.20;99.90;;;;;;5005786;28;20026;-88
2022/12/02 06:57:58;;;;;;;28.23;12.93;;;3.10;99.90;;;;;;5003021;28;20033;-89
2022/12/02 07:00:24;;;;;;;29.48;13.13;;;3.10;99.90;;;;;;5007049;28;20045;-89
2022/12/02 07:02:49;;;;;;;28.92;12.45;;;3.10;99.90;;;;;;5001116;28;20031;-88
2022/12/02 07:05:21;;;;;;;25.45;11.93;;;3.20;99.90;;;;;;5017046;28;20040;-89
2022/12/02 07:07:47;;;;;;;28.80;12.45;;;3.10;99.90;;;;;;4991667;28;20110;-89
2022/12/02 07:10:24;;;;;;;28.42;12.57;;;3.20;99.90;;;;;;5002504;28;20116;-89
2022/12/02 07:12:50;;;;;;;26.13;12.10;;;3.10;99.90;;;;;;5003930;28;20038;-89
2022/12/02 07:15:31;;;;;;;20.80;9.63;;;3.10;99.90;;;;;;4995970;28;20033;-89
2022/12/02 07:18:11;;;;;;;23.42;9.93;;;3.10;99.90;;;;;;4988309;28;20022;-88
2022/12/02 07:20:43;;;;;;;21.65;10.25;;;3.10;99.90;;;;;;5007383;28;20036;-90
2022/12/02 07:23:19;;;;;;;26.23;10.07;;;3.10;99.90;;;;;;5015812;28;20026;-89
2022/12/02 07:25:51;;;;;;;27.80;11.65;;;3.10;99.90;;;;;;5014426;28;20031;-90
2022/12/02 07:28:33;;;;;;;24.90;11.50;;;3.00;99.90;;;;;;5007090;28;20038;-90
2022/12/02 07:31:02;;;;;;;26.98;10.45;;;3.00;99.90;;;;;;4994282;28;20030;-89
2022/12/02 07:33:29;;;;;;;25.20;10.23;;;3.00;99.90;;;;;;5003378;28;20113;-90
2022/12/02 07:35:55;;;;;;;23.25;11.60;;;3.00;99.90;;;;;;5009358;28;20433;-89
2022/12/02 07:38:20;;;;;;;21.38;8.82;;;3.00;99.90;;;;;;4974746;28;20037;-91
2022/12/02 07:40:46;;;;;;;22.38;9.23;;;3.00;99.90;;;;;;4931752;28;20045;-89
2022/12/02 07:43:12;;;;;;;23.65;9.85;;;3.00;99.90;;;;;;4986589;28;20030;-91
2022/12/02 07:45:38;;;;;;;20.27;8.98;;;3.00;99.90;;;;;;4995277;28;20046;-89
2022/12/02 07:48:04;;;;;;;24.17;9.38;;;3.00;99.90;;;;;;4991346;28;20029;-90
2022/12/02 07:50:30;;;;;;;23.10;9.52;;;3.00;99.90;;;;;;4994387;28;20064;-90
2022/12/02 07:52:55;;;;;;;23.10;8.38;;;3.00;99.90;;;;;;4997069;28;20486;-90
2022/12/02 07:55:21;;;;;;;19.92;7.05;;;3.00;99.90;;;;;;4984952;28;20030;-89
2022/12/02 07:57:47;;;;;;;17.70;7.10;;;3.10;99.90;;;;;;5002731;28;20092;-89
2022/12/02 08:00:13;;;;;;;21.40;8.55;;;3.00;99.90;;;;;;4990699;28;20370;-90
2022/12/02 08:02:39;;;;;;;22.67;8.63;;;3.00;99.90;;;;;;5005952;28;20474;-91
2022/12/02 08:05:06;;;;;;;21.90;10.00;;;3.00;99.90;;;;;;4998646;28;20030;-91
2022/12/02 08:07:31;;;;;;;24.13;9.63;;;3.00;99.90;;;;;;5004677;28;20502;-90
2022/12/02 08:09:57;;;;;;;22.95;9.25;;;2.90;99.90;;;;;;4999791;28;20030;-90
2022/12/02 08:12:23;;;;;;;25.50;9.80;;;3.00;99.90;;;;;;4984710;28;20069;-90
2022/12/02 08:14:48;;;;;;;24.48;9.98;;;3.00;99.90;;;;;;4991774;28;20045;-88
2022/12/02 08:17:14;;;;;;;27.05;10.20;;;3.00;99.90;;;;;;4992291;28;20057;-91
2022/12/02 08:19:40;;;;;;;25.73;9.25;;;3.00;99.90;;;;;;4996263;28;20061;-91
2022/12/02 08:22:06;;;;;;;26.45;10.13;;;3.00;99.90;;;;;;4995745;28;20033;-91
2022/12/02 08:24:32;;;;;;;25.52;9.55;;;2.90;99.90;;;;;;4985115;28;20038;-89
2022/12/02 08:26:58;;;;;;;30.45;11.02;;;3.00;99.90;;;;;;5002695;28;20045;-90
2022/12/02 08:29:24;;;;;;;38.15;13.70;;;3.00;99.90;;;;;;4979208;28;20426;-90
2022/12/02 08:31:50;;;;;;;30.83;13.07;;;3.00;99.90;;;;;;4979181;28;20030;-88
2022/12/02 08:34:16;;;;;;;36.50;12.95;;;3.00;99.90;;;;;;5004440;28;20034;-88
2022/12/02 08:36:42;;;;;;;30.58;11.20;;;3.00;99.90;;;;;;4987591;28;20104;-89
2022/12/02 08:39:07;;;;;;;29.23;12.07;;;3.00;99.90;;;;;;4996347;28;20026;-89
2022/12/02 08:41:34;;;;;;;32.70;11.07;;;3.00;99.90;;;;;;4985953;28;20601;-90
2022/12/02 08:44:00;;;;;;;34.17;12.88;;;3.10;99.90;;;;;;5000996;28;20026;-91
2022/12/02 08:46:26;;;;;;;31.48;11.88;;;3.00;99.90;;;;;;4998252;28;20391;-89
2022/12/02 08:48:53;;;;;;;39.92;14.13;;;3.10;99.90;;;;;;5005603;28;20032;-92
2022/12/02 08:51:19;;;;;;;35.90;13.55;;;3.00;99.90;;;;;;4986768;28;20050;-91
2022/12/02 08:53:44;;;;;;;35.47;13.60;;;3.00;99.90;;;;;;4986175;28;20080;-91
2022/12/02 08:56:10;;;;;;;37.83;13.23;;;3.10;99.90;;;;;;4984466;28;20065;-91
2022/12/02 08:58:37;;;;;;;33.30;12.18;;;3.10;99.90;;;;;;4987343;28;20030;-90
2022/12/02 09:01:02;;;;;;;33.97;11.75;;;3.10;99.90;;;;;;4984460;28;20125;-90
2022/12/02 09:03:29;;;;;;;34.72;12.25;;;3.10;99.90;;;;;;4982872;28;20025;-90
2022/12/02 09:05:55;;;;;;;39.47;14.32;;;3.10;99.90;;;;;;4997489;28;20045;-91
2022/12/02 09:08:21;;;;;;;33.70;13.38;;;3.10;99.90;;;;;;4979792;28;20030;-91
2022/12/02 09:10:47;;;;;;;40.97;14.13;;;3.10;99.90;;;;;;4993905;28;20074;-91
2022/12/02 09:13:12;;;;;;;31.00;12.05;;;3.10;99.90;;;;;;4982856;28;20065;-91
2022/12/02 09:15:38;;;;;;;36.83;12.23;;;3.10;99.90;;;;;;4978499;28;20036;-90
2022/12/02 09:18:04;;;;;;;42.08;14.05;;;3.10;99.90;;;;;;5001813;28;20029;-92
2022/12/02 09:20:30;;;;;;;45.05;15.10;;;3.20;99.90;;;;;;4989568;28;20030;-90
2022/12/02 09:22:55;;;;;;;42.05;15.10;;;3.00;99.90;;;;;;4986240;28;20030;-91
2022/12/02 09:25:21;;;;;;;37.80;12.13;;;3.20;99.90;;;;;;5001424;28;20026;-92
2022/12/02 09:27:47;;;;;;;32.38;11.52;;;3.10;99.90;;;;;;5001550;28;20037;-91
2022/12/02 09:30:13;;;;;;;35.90;12.60;;;3.20;99.90;;;;;;4983014;28;20033;-91
2022/12/02 09:32:39;;;;;;;31.52;12.23;;;3.20;99.90;;;;;;4983953;28;20061;-91
2022/12/02 09:35:05;;;;;;;38.53;13.23;;;3.30;99.90;;;;;;4985662;28;20152;-90
2022/12/02 09:37:31;;;;;;;35.03;12.07;;;3.20;99.90;;;;;;4999692;28;20037;-89
2022/12/02 09:39:57;;;;;;;33.75;12.15;;;3.20;99.90;;;;;;5007806;28;20120;-91
2022/12/02 09:42:23;;;;;;;39.35;13.68;;;3.30;99.90;;;;;;4986865;28;20038;-92
2022/12/02 09:44:49;;;;;;;39.28;15.30;;;3.20;99.90;;;;;;4986984;28;20080;-90
2022/12/02 09:47:15;;;;;;;38.75;13.98;;;3.20;99.90;;;;;;4988143;28;20493;-91
2022/12/02 09:49:43;;;;;;;36.72;13.52;;;3.30;99.90;;;;;;4981139;28;20026;-90
2022/12/02 09:52:15;;;;;;;36.40;11.98;;;3.30;99.90;;;;;;4989697;28;20234;-88
2022/12/02 09:54:42;;;;;;;33.42;13.38;;;3.30;99.90;;;;;;5000252;28;20057;-89
2022/12/02 09:57:16;;;;;;;30.35;10.95;;;3.20;99.90;;;;;;4988272;28;20092;-89
2022/12/02 09:59:42;;;;;;;25.45;9.50;;;3.30;99.90;;;;;;5000675;28;20026;-90
2022/12/02 10:02:48;;;;;;;26.17;10.35;;;3.30;99.90;;;;;;5002494;28;20105;-90
2022/12/02 10:05:23;;;;;;;29.63;10.43;;;3.30;99.90;;;;;;4989117;28;20038;-88
2022/12/02 10:07:51;;;;;;;27.50;9.85;;;3.40;99.90;;;;;;4999302;28;20057;-91
2022/12/02 10:10:20;;;;;;;30.00;10.35;;;3.40;99.90;;;;;;5001516;28;20136;-87
2022/12/02 10:12:46;;;;;;;32.92;11.52;;;3.40;99.90;;;;;;5005825;28;20038;-89
2022/12/02 10:15:15;;;;;;;32.35;12.20;;;3.40;99.90;;;;;;5001432;28;20036;-90
2022/12/02 10:17:43;;;;;;;27.73;11.77;;;3.40;99.90;;;;;;5015260;28;20056;-89
2022/12/02 10:20:18;;;;;;;32.72;12.20;;;3.40;99.90;;;;;;4990898;28;20026;-91
2022/12/02 10:23:16;;;;;;;32.40;12.85;;;3.40;99.90;;;;;;5002467;28;20044;-90
2022/12/02 10:25:47;;;;;;;35.92;12.35;;;3.40;99.90;;;;;;4983473;28;20026;-88
2022/12/02 10:28:30;;;;;;;36.33;12.73;;;3.40;99.90;;;;;;4995782;28;20037;-91
2022/12/02 10:31:21;;;;;;;34.17;12.73;;;3.40;99.90;;;;;;4990110;28;20123;-89
2022/12/02 10:33:51;;;;;;;29.98;12.52;;;3.40;99.90;;;;;;4982579;28;20042;-90
2022/12/02 10:36:39;;;;;;;29.27;11.18;;;3.50;99.90;;;;;;5006873;28;20045;-89
2022/12/02 10:39:15;;;;;;;33.15;11.75;;;3.50;99.90;;;;;;4982263;28;20120;-90
2022/12/02 10:41:41;;;;;;;31.70;10.93;;;3.60;99.90;;;;;;4985440;28;20081;-91
2022/12/02 10:44:25;;;;;;;30.35;10.27;;;3.70;99.90;;;;;;4968304;28;20069;-90
2022/12/02 10:47:16;;;;;;;29.40;10.20;;;3.70;99.90;;;;;;5009710;28;20053;-90
2022/12/02 10:49:50;;;;;;;27.48;10.00;;;3.80;99.90;;;;;;5004438;28;20312;-89
2022/12/02 10:52:18;;;;;;;29.50;12.38;;;3.80;99.90;;;;;;4992068;28;20096;-89
2022/12/02 10:54:49;;;;;;;39.08;13.77;;;3.70;99.90;;;;;;5003223;28;20029;-87
2022/12/02 10:57:23;;;;;;;40.40;14.63;;;3.60;99.90;;;;;;4992121;28;20041;-93
2022/12/02 10:59:49;;;;;;;34.53;11.73;;;3.60;99.90;;;;;;4987889;28;20061;-90
2022/12/02 11:02:23;;;;;;;29.33;10.38;;;3.60;99.90;;;;;;4989037;28;20068;-90
2022/12/02 11:04:50;;;;;;;28.45;11.18;;;3.50;99.90;;;;;;4992262;28;20631;-90
2022/12/02 11:07:16;;;;;;;34.75;12.70;;;3.50;99.90;;;;;;4990955;28;20073;-89
2022/12/02 11:09:50;;;;;;;36.65;13.88;;;3.60;99.90;;;;;;4988022;28;20034;-90
2022/12/02 11:12:33;;;;;;;36.80;12.20;;;3.60;99.90;;;;;;4986619;28;20100;-87
2022/12/02 11:15:00;;;;;;;37.15;12.30;;;3.60;99.90;;;;;;4986718;28;20055;-88
2022/12/02 11:17:45;;;;;;;30.77;11.35;;;3.50;99.90;;;;;;4987691;28;20429;-88
2022/12/02 11:20:48;;;;;;;36.35;13.18;;;3.50;99.90;;;;;;4993102;28;20128;-89
2022/12/02 11:23:15;;;;;;;38.42;12.90;;;3.50;99.90;;;;;;4975612;28;20132;-90
2022/12/02 11:25:46;;;;;;;39.20;12.90;;;3.50;99.90;;;;;;4990237;28;20126;-89
2022/12/02 11:28:18;;;;;;;33.63;12.27;;;3.50;99.90;;;;;;5006854;28;20493;-89
2022/12/02 11:31:07;;;;;;;33.97;12.73;;;3.50;99.90;;;;;;4992977;28;20553;-89
2022/12/02 11:33:48;;;;;;;33.88;12.85;;;3.50;99.90;;;;;;4974686;28;20045;-89
2022/12/02 11:36:20;;;;;;;33.40;11.77;;;3.50;99.90;;;;;;4974998;28;20129;-90
2022/12/02 11:38:50;;;;;;;32.17;11.55;;;3.50;99.90;;;;;;5007065;28;20045;-90
2022/12/02 11:41:23;;;;;;;32.78;11.70;;;3.60;99.90;;;;;;4974269;28;20034;-90
2022/12/02 11:43:50;;;;;;;29.33;9.23;;;3.60;99.90;;;;;;4982670;28;20076;-88
2022/12/02 11:46:37;;;;;;;36.17;11.55;;;3.60;99.90;;;;;;4977767;28;20075;-91
2022/12/02 11:49:28;;;;;;;28.83;9.35;;;3.60;99.90;;;;;;4991867;28;20047;-89
2022/12/02 11:52:12;;;;;;;27.02;10.73;;;3.60;99.90;;;;;;4976095;28;20143;-90
2022/12/02 11:54:41;;;;;;;30.30;9.55;;;3.60;99.90;;;;;;4989727;28;20038;-89
2022/12/02 11:57:18;;;;;;;32.03;11.27;;;3.70;99.90;;;;;;4974493;28;20036;-89
2022/12/02 11:59:44;;;;;;;32.33;11.00;;;3.70;99.90;;;;;;4996563;28;20050;-89
2022/12/02 12:02:17;;;;;;;26.63;9.48;;;3.70;99.90;;;;;;4994040;28;20038;-89
2022/12/02 12:04:44;;;;;;;27.85;9.95;;;3.70;99.90;;;;;;5003763;28;20037;-90
2022/12/02 12:07:10;;;;;;;28.92;9.43;;;3.70;99.90;;;;;;5004109;28;20045;-89
2022/12/02 12:09:39;;;;;;;26.77;8.45;;;3.80;99.90;;;;;;4987858;28;20033;-89
2022/12/02 12:12:12;;;;;;;24.02;9.20;;;3.80;99.90;;;;;;5003247;28;20044;-89
2022/12/02 12:15:02;;;;;;;27.40;9.50;;;3.80;99.90;;;;;;4993006;28;20033;-90
2022/12/02 12:17:37;;;;;;;26.92;9.35;;;3.80;99.90;;;;;;4985909;28;20034;-90
2022/12/02 12:20:23;;;;;;;21.95;8.35;;;3.90;99.90;;;;;;4987911;28;20517;-90
2022/12/02 12:22:49;;;;;;;22.30;7.45;;;3.90;99.90;;;;;;5002492;28;20050;-90
2022/12/02 12:25:40;;;;;;;18.00;6.82;;;3.90;99.90;;;;;;5000924;28;20038;-89
2022/12/02 12:28:31;;;;;;;27.20;9.52;;;3.90;99.90;;;;;;4992129;28;20057;-90
2022/12/02 12:30:58;;;;;;;20.80;7.90;;;3.80;99.90;;;;;;4988286;28;20038;-89
2022/12/02 12:33:24;;;;;;;21.63;8.30;;;3.90;99.90;;;;;;5000690;28;20493;-90
2022/12/02 12:35:53;;;;;;;19.10;7.38;;;3.90;99.90;;;;;;5003890;28;20072;-91
2022/12/02 12:38:20;;;;;;;24.35;8.98;;;3.90;99.90;;;;;;4984786;28;20065;-88
2022/12/02 12:40:46;;;;;;;22.83;9.00;;;3.80;99.90;;;;;;4998561;28;20041;-89
2022/12/02 12:43:12;;;;;;;24.13;8.25;;;3.80;99.90;;;;;;5000444;28;20052;-90
2022/12/02 12:45:37;;;;;;;22.13;8.43;;;3.80;99.90;;;;;;4982494;28;20886;-89
2022/12/02 12:48:03;;;;;;;19.13;7.38;;;3.80;99.90;;;;;;4978632;28;20030;-85
